Eudora, Kansas
Current Conditions -  °F | °C
As of 7:52 PM on Wednesday 22 Oct 2014 (Local Time) from KLWC Reporting Station
Clear Clear  
Wind Chill: 64°   Ceiling: Unl
Heat Index: 64°   Visibility: 9mi
Dew Point: 56°   Wind: 8mph
Humidity: 75%   Direction: 150°SSE
Pressure: 30.09"   Gusts: NA
Location:  38.94°N, 95.1°W
Report Text: KLWC 230052Z AUTO 15007KT 9SM CLR 18/13 A3009 RMK AO2 SLP186 T01780133
Loading
Personal Weather Stations






























Interactive Weather Map
Tropical Storm Tracking
New forecast layout! Learn more

10-Day Weather Forecast

Advertisements
Track Severe Weather on mobile